< < Back
Terminal Aerodrome Forecast


Current Version              Previous Versions:   1  2  3  4  5  6  7  8  9  

Terminal Aerodrome Forecast

671
FTUS44 KBMX 092324
TAFTCL
TAF
KTCL 092324Z 1000/1024 30010G17KT P6SM SCT070
     FM100200 33006KT P6SM SCT050
     FM101500 29010G18KT P6SM SKC=



Latest METAR

603
SAUS70 KWBC 110000 RRK
MTRTCL
METAR KTCL 102353Z 00000KT 10SM CLR 05/M10 A3018 RMK AO2 SLP221
T00501100 10072 20033 58006


USA.gov is the U.S. government's official web portal to all federal, state and local government web resources and services.